East Wenona, Illinois
Current Conditions -  °F | °C
As of 10:15 AM on Wednesday 28 Jan 2015 (Local Time) from KC75 Reporting Station
Clear Clear  
Wind Chill: 19°   Ceiling: Unl
Heat Index: 30°   Visibility: 10mi
Dew Point: 17°   Wind: 15mph
Humidity: 59%   Direction: 170°S
Pressure: 30.21"   Gusts: 23mph
Location:  41.0632°N, 89.0208°W
Report Text: KC75 281615Z AUTO 17013G20KT 10SM CLR M01/M08 A3021 RMK AO2 T10111081
Loading
Personal Weather Stations






























Interactive Weather Map New forecast layout! Learn more

10-Day Weather Forecast

Advertisements
Track Severe Weather on mobile